Time;durP1;ratioP1;P1;durP2;ratioP2;P2;SDS_P1;SDS_P2;PMS_P1;PMS_P2;Temp;Humidity;BMP_temperature;BMP_pressure;BME280_temperature;BME280_humidity;BME280_pressure;Samples;Min_cycle;Max_cycle;Signal;HPM_P1;HPM_P2
2022/03/24 00:02:06;;;;;;;;;;;4.00;99.90;;;2.36;90.19;102509.63;2569412;30;137079;-42
2022/03/24 00:04:34;;;;;;;;;;;4.00;99.90;;;2.32;90.19;102506.31;2569944;30;138246;-41
2022/03/24 00:07:01;;;;;;;;;;;4.00;99.90;;;2.29;90.17;102498.47;2566419;30;137396;-40
2022/03/24 00:09:28;;;;;;;;;;;3.90;99.90;;;2.25;90.56;102500.50;2567246;30;138002;-40
2022/03/24 00:11:56;;;;;;;;;;;3.90;99.90;;;2.22;91.01;102498.06;2569055;30;137096;-40
2022/03/24 00:14:24;;;;;;;;;;;3.90;99.90;;;2.19;91.51;102500.97;2568936;30;137376;-41
2022/03/24 00:16:51;;;;;;;;;;;3.80;99.90;;;2.17;91.53;102502.94;2569090;30;137491;-40
2022/03/24 00:19:19;;;;;;;;;;;3.80;99.90;;;2.13;91.63;102494.25;2565547;30;138710;-41
2022/03/24 00:21:46;;;;;;;;;;;3.80;99.90;;;2.11;91.71;102498.88;2568850;30;137097;-40
2022/03/24 00:24:14;;;;;;;;;;;3.70;99.90;;;2.06;91.99;102498.34;2568726;30;138287;-40
2022/03/24 00:26:42;;;;;;;;;;;3.70;99.90;;;1.99;92.54;102487.22;2565059;30;137889;-40
2022/03/24 00:29:10;;;;;;;;;;;3.70;99.90;;;2.01;92.74;102492.47;2567707;30;138268;-40
2022/03/24 00:31:37;;;;;;;;;;;3.60;99.90;;;1.97;92.65;102491.81;2567679;30;136891;-41
2022/03/24 00:34:05;;;;;;;;;;;3.60;99.90;;;1.95;93.07;102482.16;2569467;30;138276;-41
2022/03/24 00:36:33;;;;;;;;;;;3.60;99.90;;;1.95;92.71;102490.25;2568439;30;137574;-42
2022/03/24 00:39:00;;;;;;;;;;;3.60;99.90;;;1.90;93.03;102485.19;2568204;30;140615;-40
2022/03/24 00:41:28;;;;;;;;;;;3.60;99.90;;;1.88;93.45;102487.13;2566421;30;137454;-40
2022/03/24 00:43:56;;;;;;;;;;;3.50;99.90;;;1.88;93.72;102486.28;2570001;30;138197;-41
2022/03/24 00:46:24;;;;;;;;;;;3.50;99.90;;;1.83;93.78;102483.94;2567922;30;138001;-40
2022/03/24 00:48:53;;;;;;;;;;;3.50;99.90;;;1.80;94.35;102481.47;2567709;30;138090;-41
2022/03/24 00:51:21;;;;;;;;;;;3.40;99.90;;;1.76;94.25;102486.22;2568601;30;138012;-40
2022/03/24 00:53:49;;;;;;;;;;;3.40;99.90;;;1.71;94.00;102483.00;2567879;30;137369;-41
2022/03/24 00:56:18;;;;;;;;;;;3.30;99.90;;;1.68;94.16;102494.00;2568376;30;136841;-40
2022/03/24 00:58:46;;;;;;;;;;;3.30;99.90;;;1.65;94.71;102488.84;2568597;30;138246;-41
2022/03/24 01:01:13;;;;;;;;;;;3.30;99.90;;;1.67;95.44;102490.44;2568277;30;136720;-40
2022/03/24 01:03:42;;;;;;;;;;;3.30;99.90;;;1.64;95.31;102485.28;2568779;30;138142;-40
2022/03/24 01:06:10;;;;;;;;;;;3.30;99.90;;;1.58;95.41;102486.59;2567908;30;137136;-40
2022/03/24 01:08:37;;;;;;;;;;;3.20;99.90;;;1.53;95.38;102483.38;2569889;30;139033;-40
2022/03/24 01:11:05;;;;;;;;;;;3.20;99.90;;;1.50;95.57;102480.06;2567747;30;136611;-40
2022/03/24 01:13:34;;;;;;;;;;;3.20;99.90;;;1.49;95.90;102483.72;2569511;30;138198;-41
2022/03/24 01:16:03;;;;;;;;;;;3.10;99.90;;;1.47;96.04;102483.84;2567599;30;137272;-41
2022/03/24 01:18:35;;;;;;;;;;;3.10;99.90;;;1.46;96.20;102475.84;2569088;30;138233;-41
2022/03/24 01:21:04;;;;;;;;;;;3.10;99.90;;;1.43;95.61;102487.72;2568235;30;137173;-40
2022/03/24 01:23:33;;;;;;;;;;;3.10;99.90;;;1.40;95.68;102474.50;2569385;30;137138;-40
2022/03/24 01:26:01;;;;;;;;;;;3.10;99.90;;;1.37;96.01;102472.88;2568340;30;138553;-40
2022/03/24 01:28:29;;;;;;;;;;;3.00;99.90;;;1.36;95.85;102470.31;2569027;30;138182;-40
2022/03/24 01:30:57;;;;;;;;;;;3.00;99.90;;;1.31;96.18;102473.31;2568923;30;137612;-40
2022/03/24 01:33:24;;;;;;;;;;;3.00;99.90;;;1.29;96.27;102472.59;2568408;30;138307;-40
2022/03/24 01:35:52;;;;;;;;;;;3.00;99.90;;;1.28;96.44;102471.72;2567914;30;137137;-40
2022/03/24 01:38:20;;;;;;;;;;;3.00;99.90;;;1.25;96.69;102471.09;2567382;30;139806;-40
2022/03/24 01:40:48;;;;;;;;;;;2.90;99.90;;;1.23;97.43;102471.19;2568784;30;136961;-41
2022/03/24 01:43:20;;;;;;;;;;;2.90;99.90;;;1.19;97.40;102466.13;2567249;30;139589;-41
2022/03/24 01:45:49;;;;;;;;;;;2.80;99.90;;;1.22;97.99;102466.78;2568477;30;136598;-40
2022/03/24 01:48:17;;;;;;;;;;;2.80;99.90;;;1.18;98.22;102467.97;2569517;30;139607;-40
2022/03/24 01:50:46;;;;;;;;;;;2.80;99.90;;;1.12;98.09;102479.19;2567486;30;137953;-40
2022/03/24 01:53:15;;;;;;;;;;;2.80;99.90;;;1.02;97.84;102461.97;2565910;30;136832;-40
2022/03/24 01:55:42;;;;;;;;;;;2.70;99.90;;;0.99;97.77;102469.28;2568625;30;137099;-40
2022/03/24 01:58:12;;;;;;;;;;;2.70;99.90;;;0.94;97.81;102467.91;2568754;30;139560;-40
2022/03/24 02:00:40;;;;;;;;;;;2.60;99.90;;;0.92;98.32;102470.69;2565318;30;139054;-40
2022/03/24 02:03:08;;;;;;;;;;;2.60;99.90;;;0.91;98.60;102465.41;2568325;30;138399;-40
2022/03/24 02:05:37;;;;;;;;;;;2.60;99.90;;;0.89;98.84;102468.22;2568378;30;137047;-41
2022/03/24 02:08:05;;;;;;;;;;;2.60;99.90;;;0.88;98.76;102462.94;2566843;30;140025;-40
2022/03/24 02:10:34;;;;;;;;;;;2.50;99.90;;;0.85;98.69;102461.34;2567664;30;138409;-40
2022/03/24 02:13:03;;;;;;;;;;;2.50;99.90;;;0.84;98.50;102470.38;2567284;30;139983;-41
2022/03/24 02:15:33;;;;;;;;;;;2.50;99.90;;;0.83;98.94;102458.75;2568403;30;137222;-40
2022/03/24 02:18:01;;;;;;;;;;;2.50;99.90;;;0.80;98.94;102458.97;2568222;30;139702;-40
2022/03/24 02:20:33;;;;;;;;;;;2.50;99.90;;;0.80;98.69;102452.75;2568037;30;136950;-40
2022/03/24 02:23:01;;;;;;;;;;;2.50;99.90;;;0.77;98.92;102456.50;2568780;30;139092;-40
2022/03/24 02:25:32;;;;;;;;;;;2.50;99.90;;;0.72;98.47;102453.28;2566846;30;138242;-40
2022/03/24 02:28:02;;;;;;;;;;;2.40;99.90;;;0.68;98.37;102457.16;2568709;30;138314;-40
2022/03/24 02:30:29;;;;;;;;;;;2.40;99.90;;;0.63;98.46;102449.41;2568242;30;137655;-40
2022/03/24 02:32:57;;;;;;;;;;;2.30;99.90;;;0.59;98.58;102445.22;2569270;30;138337;-40
2022/03/24 02:35:25;;;;;;;;;;;2.30;99.90;;;0.56;98.38;102456.19;2568640;30;137214;-40
2022/03/24 02:37:52;;;;;;;;;;;2.20;99.90;;;0.52;98.51;102451.97;2567625;30;136862;-40
2022/03/24 02:40:20;;;;;;;;;;;2.20;99.90;;;0.49;98.60;102453.06;2569180;30;137179;-40
2022/03/24 02:42:48;;;;;;;;;;;2.20;99.90;;;0.49;98.62;102454.88;2568697;30;138778;-41
2022/03/24 02:45:16;;;;;;;;;;;2.20;99.90;;;0.49;99.21;102449.50;2567861;30;137107;-40
2022/03/24 02:47:44;;;;;;;;;;;2.20;99.90;;;0.50;99.45;102453.91;2567158;30;138897;-41
2022/03/24 02:50:11;;;;;;;;;;;2.20;99.90;;;0.47;99.05;102454.13;2568628;30;136831;-41
2022/03/24 02:52:39;;;;;;;;;;;2.20;99.90;;;0.46;98.90;102457.78;2567469;30;137136;-40
2022/03/24 02:55:10;;;;;;;;;;;2.10;99.90;;;0.45;98.94;102459.63;2568285;30;137071;-40
2022/03/24 02:57:37;;;;;;;;;;;2.10;99.90;;;0.45;99.74;102459.63;2567066;30;138141;-41
2022/03/24 03:00:07;;;;;;;;;;;2.20;99.90;;;0.47;99.84;102457.69;2569109;30;137004;-40
2022/03/24 03:02:34;;;;;;;;;;;2.20;99.90;;;0.47;100.00;102457.69;2567251;30;138552;-40
2022/03/24 03:05:03;;;;;;;;;;;2.20;99.90;;;0.41;100.00;102458.94;2568732;30;136875;-40
2022/03/24 03:07:30;;;;;;;;;;;2.10;99.90;;;0.35;100.00;102459.38;2568013;30;138556;-40
2022/03/24 03:09:57;;;;;;;;;;;2.10;99.90;;;0.34;99.94;102463.03;2566416;30;137228;-40
2022/03/24 03:12:28;;;;;;;;;;;2.00;99.90;;;0.32;99.99;102461.41;2568508;30;139045;-40
2022/03/24 03:14:56;;;;;;;;;;;2.00;99.90;;;0.24;99.89;102456.56;2568737;30;136967;-40
2022/03/24 03:17:24;;;;;;;;;;;2.00;99.90;;;0.24;99.57;102459.22;2569107;30;138303;-40
2022/03/24 03:19:51;;;;;;;;;;;2.00;99.90;;;0.20;99.41;102466.66;2566010;30;139253;-40
2022/03/24 03:22:18;;;;;;;;;;;1.90;99.90;;;0.22;99.64;102466.53;2568391;30;138245;-40
2022/03/24 03:24:46;;;;;;;;;;;1.90;99.90;;;0.22;100.00;102469.22;2566680;30;137859;-40
2022/03/24 03:27:14;;;;;;;;;;;1.90;99.90;;;0.17;100.00;102458.81;2568963;30;137433;-40
2022/03/24 03:29:42;;;;;;;;;;;1.90;99.90;;;0.06;100.00;102459.53;2568099;30;136681;-40
2022/03/24 03:32:10;;;;;;;;;;;1.80;99.90;;;0.08;100.00;102460.28;2568336;30;138378;-40
2022/03/24 03:34:41;;;;;;;;;;;1.80;99.90;;;0.02;100.00;102463.41;2568704;30;137102;-40
2022/03/24 03:37:10;;;;;;;;;;;1.70;99.90;;;-0.03;100.00;102455.63;2568375;30;139080;-40
2022/03/24 03:39:37;;;;;;;;;;;1.70;99.90;;;-0.06;100.00;102455.84;2568126;30;136986;-41
2022/03/24 03:42:05;;;;;;;;;;;1.60;99.90;;;-0.05;100.00;102452.19;2567343;30;138273;-40
2022/03/24 03:44:32;;;;;;;;;;;1.70;99.90;;;-0.03;100.00;102462.81;2566494;30;136744;-40
2022/03/24 03:47:01;;;;;;;;;;;1.70;99.90;;;-0.05;100.00;102457.56;2569767;30;137495;-40
2022/03/24 03:49:28;;;;;;;;;;;1.70;99.90;;;-0.06;100.00;102466.59;2566092;30;137572;-40
2022/03/24 03:52:16;;;;;;;;;;;1.70;99.90;;;-0.08;100.00;102470.31;2566941;30;138504;-41
2022/03/24 03:54:44;;;;;;;;;;;1.60;99.90;;;-0.08;100.00;102475.69;2564755;30;137071;-40
2022/03/24 03:57:12;;;;;;;;;;;1.60;99.90;;;-0.11;100.00;102473.22;2566837;30;139094;-40
2022/03/24 03:59:39;;;;;;;;;;;1.60;99.90;;;-0.15;100.00;102478.78;2567593;30;137009;-40
2022/03/24 04:02:07;;;;;;;;;;;1.60;99.90;;;-0.21;100.00;102476.50;2566633;30;138453;-40
2022/03/24 04:04:34;;;;;;;;;;;1.50;99.90;;;-0.26;100.00;102472.41;2565889;30;137288;-40
2022/03/24 04:07:03;;;;;;;;;;;1.50;99.90;;;-0.33;100.00;102478.19;2569477;30;138302;-40
2022/03/24 04:09:30;;;;;;;;;;;1.40;99.90;;;-0.38;100.00;102474.94;2568226;30;137196;-40
2022/03/24 04:11:57;;;;;;;;;;;1.30;99.90;;;-0.41;100.00;102475.09;2566805;30;139430;-40
2022/03/24 04:14:25;;;;;;;;;;;1.30;99.90;;;-0.45;100.00;102471.78;2568375;30;137145;-40
2022/03/24 04:16:57;;;;;;;;;;;1.30;99.90;;;-0.46;100.00;102474.56;2567897;30;138003;-40
2022/03/24 04:19:25;;;;;;;;;;;1.20;99.90;;;-0.47;100.00;102468.34;2569340;30;137389;-40
2022/03/24 04:21:53;;;;;;;;;;;1.30;99.90;;;-0.47;100.00;102476.38;2569279;30;138455;-40
2022/03/24 04:24:20;;;;;;;;;;;1.30;99.90;;;-0.50;100.00;102468.53;2569018;30;137078;-40
2022/03/24 04:26:48;;;;;;;;;;;1.20;99.90;;;-0.54;100.00;102472.34;2568774;30;137500;-40
2022/03/24 04:29:15;;;;;;;;;;;1.20;99.90;;;-0.57;100.00;102471.72;2568295;30;137129;-40
2022/03/24 04:31:42;;;;;;;;;;;1.20;99.90;;;-0.56;100.00;102471.59;2569247;30;138350;-40
2022/03/24 04:34:11;;;;;;;;;;;1.10;99.90;;;-0.59;100.00;102469.13;2567654;30;137051;-40
2022/03/24 04:36:38;;;;;;;;;;;1.10;99.90;;;-0.63;100.00;102464.91;2569184;30;138119;-40
2022/03/24 04:39:05;;;;;;;;;;;1.10;99.90;;;-0.58;100.00;102468.16;2568205;30;136969;-40
2022/03/24 04:41:34;;;;;;;;;;;1.10;99.90;;;-0.56;100.00;102468.91;2568332;30;139097;-40
2022/03/24 04:44:02;;;;;;;;;;;1.10;99.90;;;-0.59;100.00;102470.00;2569230;30;137759;-40
2022/03/24 04:46:29;;;;;;;;;;;1.20;99.90;;;-0.58;100.00;102468.16;2567728;30;138459;-40
2022/03/24 04:48:57;;;;;;;;;;;1.10;99.90;;;-0.57;100.00;102477.06;2568372;30;137018;-41
2022/03/24 04:51:24;;;;;;;;;;;1.20;99.90;;;-0.60;100.00;102479.00;2567791;30;137859;-40
2022/03/24 04:53:52;;;;;;;;;;;1.20;99.90;;;-0.57;100.00;102475.25;2568150;30;137009;-40
2022/03/24 04:56:19;;;;;;;;;;;1.20;99.90;;;-0.61;100.00;102484.44;2568185;30;139134;-40
2022/03/24 04:58:48;;;;;;;;;;;1.10;99.90;;;-0.65;100.00;102485.59;2567554;30;137873;-40
2022/03/24 05:01:16;;;;;;;;;;;1.10;99.90;;;-0.68;100.00;102475.94;2569588;30;138345;-41
2022/03/24 05:03:46;;;;;;;;;;;1.10;99.90;;;-0.70;100.00;102482.38;2569062;30;138023;-40
2022/03/24 05:06:14;;;;;;;;;;;1.10;99.90;;;-0.74;100.00;102482.56;2569225;30;138236;-40
2022/03/24 05:08:42;;;;;;;;;;;1.00;99.90;;;-0.71;100.00;102491.38;2568807;30;138693;-41
2022/03/24 05:11:09;;;;;;;;;;;1.00;99.90;;;-0.74;100.00;102492.41;2567968;30;138196;-40
2022/03/24 05:13:36;;;;;;;;;;;1.00;99.90;;;-0.79;100.00;102490.03;2567226;30;137905;-40
2022/03/24 05:16:04;;;;;;;;;;;1.00;99.90;;;-0.80;100.00;102488.28;2568443;30;139099;-41
2022/03/24 05:18:32;;;;;;;;;;;1.00;99.90;;;-0.82;100.00;102489.34;2569143;30;136900;-40
2022/03/24 05:20:59;;;;;;;;;;;0.90;99.90;;;-0.82;100.00;102494.72;2568832;30;138521;-40
2022/03/24 05:23:27;;;;;;;;;;;0.90;99.90;;;-0.84;100.00;102484.09;2569375;30;136738;-40
2022/03/24 05:25:55;;;;;;;;;;;0.90;99.90;;;-0.88;100.00;102487.91;2569004;30;138441;-41
2022/03/24 05:28:22;;;;;;;;;;;0.90;99.90;;;-0.89;100.00;102489.75;2569327;30;136847;-40
2022/03/24 05:30:50;;;;;;;;;;;0.90;99.90;;;-0.91;100.00;102490.78;2568163;30;138228;-40
2022/03/24 05:33:17;;;;;;;;;;;0.80;99.90;;;-0.90;100.00;102493.38;2568706;30;137043;-40
2022/03/24 05:35:45;;;;;;;;;;;0.80;99.90;;;-0.89;100.00;102495.09;2569482;30;138150;-40
2022/03/24 05:38:13;;;;;;;;;;;0.80;99.90;;;-0.87;100.00;102492.31;2567999;30;137427;-40
2022/03/24 05:40:40;;;;;;;;;;;0.80;99.90;;;-0.89;100.00;102488.88;2567672;30;137321;-40
2022/03/24 05:43:08;;;;;;;;;;;0.80;99.90;;;-0.92;100.00;102489.94;2566055;30;137715;-40
2022/03/24 05:45:35;;;;;;;;;;;0.80;99.90;;;-0.88;100.00;102487.91;2569036;30;138570;-41
2022/03/24 05:48:03;;;;;;;;;;;0.80;99.90;;;-0.85;100.00;102486.88;2568199;30;137060;-40
2022/03/24 05:50:45;;;;;;;;;;;0.80;99.90;;;-0.80;100.00;102488.28;2564769;30;139748;-40
2022/03/24 05:53:16;;;;;;;;;;;0.90;99.90;;;-0.77;100.00;102489.91;2567767;30;139239;-40
2022/03/24 05:55:44;;;;;;;;;;;0.90;99.90;;;-0.74;100.00;102493.28;2568286;30;139157;-41
2022/03/24 05:58:17;;;;;;;;;;;1.00;99.90;;;-0.67;100.00;102490.19;2566343;30;137196;-40
2022/03/24 06:00:46;;;;;;;;;;;1.00;99.90;;;-0.62;100.00;102497.00;2568178;30;139123;-40
2022/03/24 06:03:15;;;;;;;;;;;1.00;99.90;;;-0.60;100.00;102491.53;2568733;30;137086;-40
2022/03/24 06:05:44;;;;;;;;;;;1.10;99.90;;;-0.53;100.00;102492.88;2568045;30;139406;-40
2022/03/24 06:08:11;;;;;;;;;;;1.10;99.90;;;-0.45;100.00;102493.25;2568663;30;138249;-40
2022/03/24 06:10:39;;;;;;;;;;;1.20;99.90;;;-0.39;100.00;102499.16;2567672;30;138405;-40
2022/03/24 06:13:06;;;;;;;;;;;1.20;99.90;;;-0.35;100.00;102493.50;2569019;30;137300;-40
2022/03/24 06:15:34;;;;;;;;;;;1.30;99.90;;;-0.30;100.00;102498.56;2568246;30;138320;-40
2022/03/24 06:18:01;;;;;;;;;;;1.30;99.90;;;-0.23;100.00;102505.25;2566236;30;137122;-40
2022/03/24 06:20:29;;;;;;;;;;;1.40;99.90;;;-0.17;100.00;102504.84;2566720;30;139101;-40
2022/03/24 06:22:57;;;;;;;;;;;1.40;99.90;;;-0.06;100.00;102505.97;2568660;30;137124;-40
2022/03/24 06:25:26;;;;;;;;;;;1.50;99.90;;;0.04;100.00;102504.41;2567618;30;139265;-40
2022/03/24 06:27:55;;;;;;;;;;;1.60;99.90;;;0.10;100.00;102495.94;2568539;30;136878;-40
2022/03/24 06:30:24;;;;;;;;;;;1.70;99.90;;;0.28;100.00;102511.78;2568794;30;137290;-40
2022/03/24 06:32:52;;;;;;;;;;;1.80;99.90;;;0.40;100.00;102510.09;2567963;30;137750;-41
2022/03/24 06:35:19;;;;;;;;;;;1.90;99.90;;;0.50;100.00;102511.19;2568625;30;138267;-41
2022/03/24 06:37:48;;;;;;;;;;;2.00;99.90;;;0.60;100.00;102506.03;2568872;30;136928;-40
2022/03/24 06:40:16;;;;;;;;;;;2.10;99.90;;;0.69;100.00;102509.94;2566807;30;138431;-40
2022/03/24 06:42:44;;;;;;;;;;;2.20;99.90;;;0.84;100.00;102516.06;2568290;30;137030;-39
2022/03/24 06:45:13;;;;;;;;;;;2.30;99.90;;;1.00;100.00;102510.47;2568035;30;139080;-40
2022/03/24 06:47:41;;;;;;;;;;;2.40;99.90;;;1.12;100.00;102504.22;2568378;30;136681;-40
2022/03/24 06:50:11;;;;;;;;;;;2.60;99.90;;;1.25;100.00;102511.44;2568870;30;138257;-41
2022/03/24 06:52:39;;;;;;;;;;;2.70;99.90;;;1.39;100.00;102513.13;2566982;30;137752;-40
2022/03/24 06:55:07;;;;;;;;;;;2.80;99.90;;;1.56;100.00;102504.66;2568274;30;139343;-40
2022/03/24 06:57:36;;;;;;;;;;;2.90;99.90;;;1.77;100.00;102506.78;2567463;30;137400;-40
2022/03/24 07:00:04;;;;;;;;;;;3.10;99.90;;;1.93;100.00;102502.97;2568368;30;137277;-40
2022/03/24 07:02:32;;;;;;;;;;;3.30;99.90;;;2.11;100.00;102498.88;2567570;30;138057;-40
2022/03/24 07:05:00;;;;;;;;;;;3.50;99.90;;;2.42;100.00;102514.53;2568969;30;138273;-40
2022/03/24 07:10:12;;;;;;;;;;;3.90;99.90;;;2.88;100.00;102502.03;2566194;30;136711;-38
2022/03/24 07:12:40;;;;;;;;;;;4.20;99.90;;;3.19;100.00;102513.13;2569757;30;137110;-42
2022/03/24 07:15:08;;;;;;;;;;;4.40;99.90;;;3.43;100.00;102512.97;2567428;30;138297;-42
2022/03/24 07:17:36;;;;;;;;;;;4.60;99.90;;;3.68;100.00;102510.97;2568578;30;137949;-42
2022/03/24 07:20:05;;;;;;;;;;;4.80;99.90;;;3.97;100.00;102512.25;2567049;30;138496;-41
2022/03/24 07:22:33;;;;;;;;;;;5.10;99.90;;;4.26;100.00;102517.09;2570339;30;137211;-43
2022/03/24 07:25:02;;;;;;;;;;;5.40;99.90;;;4.54;100.00;102521.00;2567865;30;138302;-42
2022/03/24 07:27:30;;;;;;;;;;;5.60;99.90;;;4.78;100.00;102519.03;2569883;30;137224;-41
2022/03/24 07:30:01;;;;;;;;;;;5.80;99.90;;;5.03;97.52;102524.00;2567991;30;137332;-42
2022/03/24 07:32:29;;;;;;;;;;;6.10;99.90;;;5.30;93.79;102521.72;2570619;30;136735;-42
2022/03/24 07:34:56;;;;;;;;;;;6.40;99.90;;;5.52;92.94;102526.06;2567623;30;137597;-42
2022/03/24 07:37:24;;;;;;;;;;;6.60;99.90;;;5.72;90.11;102520.72;2569908;30;137090;-41
2022/03/24 07:39:51;;;;;;;;;;;6.80;99.90;;;5.93;89.13;102525.19;2568347;30;139516;-44
2022/03/24 07:42:18;;;;;;;;;;;7.00;99.90;;;6.11;88.18;102531.69;2565982;30;138054;-42
2022/03/24 07:44:46;;;;;;;;;;;7.20;99.90;;;6.29;85.91;102525.53;2570543;30;138564;-42
2022/03/24 07:47:14;;;;;;;;;;;7.40;99.90;;;6.46;84.47;102526.66;2569873;30;138196;-41
2022/03/24 07:49:41;;;;;;;;;;;7.50;99.90;;;6.66;86.68;102527.53;2569355;30;137166;-42
2022/03/24 07:52:13;;;;;;;;;;;7.70;99.90;;;6.85;84.19;102525.75;2569232;30;137740;-42
2022/03/24 07:54:55;;;;;;;;;;;7.90;99.90;;;7.02;81.34;102530.44;2570371;30;138217;-42
2022/03/24 07:57:24;;;;;;;;;;;8.00;99.90;;;7.18;81.07;102534.41;2571452;30;137397;-42
2022/03/24 07:59:52;;;;;;;;;;;8.20;99.90;;;7.35;80.70;102530.06;2569583;30;138971;-42
2022/03/24 08:02:20;;;;;;;;;;;8.30;99.90;;;7.43;80.52;102526.59;2568982;30;137186;-43
2022/03/24 08:04:47;;;;;;;;;;;8.50;99.90;;;7.68;81.20;102535.03;2571091;30;139003;-42
2022/03/24 08:07:15;;;;;;;;;;;8.70;99.90;;;7.82;78.64;102539.97;2567967;30;137397;-44
2022/03/24 08:09:43;;;;;;;;;;;8.80;99.90;;;7.96;76.98;102540.47;2568263;30;137201;-42
2022/03/24 08:12:10;;;;;;;;;;;8.90;99.90;;;8.10;78.87;102534.50;2570166;30;137271;-43
2022/03/24 08:14:38;;;;;;;;;;;9.10;99.90;;;8.24;74.33;102538.53;2567433;30;137829;-42
2022/03/24 08:17:06;;;;;;;;;;;9.20;99.90;;;8.39;71.92;102541.56;2571690;30;136931;-42
2022/03/24 08:19:34;;;;;;;;;;;9.40;99.90;;;8.55;72.98;102542.75;2568974;30;137283;-42
2022/03/24 08:22:02;;;;;;;;;;;9.50;99.90;;;8.68;70.92;102539.66;2570966;30;137031;-42
2022/03/24 08:24:30;;;;;;;;;;;9.70;99.90;;;8.86;71.90;102542.31;2568803;30;138323;-42
2022/03/24 08:26:57;;;;;;;;;;;9.80;99.90;;;9.01;72.61;102540.72;2570400;30;136717;-42
2022/03/24 08:29:25;;;;;;;;;;;10.00;99.90;;;9.13;70.91;102543.19;2571021;30;138999;-42
2022/03/24 08:31:52;;;;;;;;;;;10.10;99.90;;;9.27;69.16;102549.91;2568067;30;137374;-43
2022/03/24 08:34:20;;;;;;;;;;;10.30;99.90;;;9.35;69.01;102550.81;2569585;30;138097;-42
2022/03/24 08:36:47;;;;;;;;;;;10.40;99.90;;;9.50;66.79;102553.78;2569851;30;137814;-42
2022/03/24 08:39:15;;;;;;;;;;;10.50;99.90;;;9.63;67.23;102547.00;2568911;30;139015;-42
2022/03/24 08:41:43;;;;;;;;;;;10.60;99.90;;;9.72;66.11;102543.31;2570918;30;137042;-42
2022/03/24 08:44:11;;;;;;;;;;;10.70;99.90;;;9.81;63.06;102548.78;2569780;30;139057;-42
2022/03/24 08:46:39;;;;;;;;;;;10.80;98.80;;;9.90;62.54;102545.06;2567904;30;137999;-42
2022/03/24 08:49:06;;;;;;;;;;;10.90;98.20;;;10.05;64.17;102547.97;2569593;30;139149;-42
2022/03/24 08:51:34;;;;;;;;;;;11.00;99.10;;;10.17;62.65;102546.66;2570051;30;137842;-42
2022/03/24 08:54:02;;;;;;;;;;;11.10;98.20;;;10.29;61.94;102549.06;2568627;30;137548;-41
2022/03/24 08:56:29;;;;;;;;;;;11.30;97.80;;;10.37;61.43;102543.63;2568307;30;137078;-42
2022/03/24 08:58:57;;;;;;;;;;;11.30;97.20;;;10.47;61.69;102552.53;2568893;30;139231;-42
2022/03/24 09:01:24;;;;;;;;;;;11.40;97.50;;;10.56;60.69;102549.78;2567858;30;137460;-42
2022/03/24 09:03:52;;;;;;;;;;;11.50;96.50;;;10.69;60.82;102549.28;2570577;30;138176;-42
2022/03/24 09:06:21;;;;;;;;;;;11.60;96.70;;;10.81;60.10;102558.84;2569734;30;137905;-43
2022/03/24 09:08:49;;;;;;;;;;;11.80;96.20;;;10.94;59.74;102550.13;2570206;30;137768;-43
2022/03/24 09:11:18;;;;;;;;;;;11.90;95.90;;;11.09;58.67;102550.28;2567706;30;137240;-43
2022/03/24 09:13:45;;;;;;;;;;;12.00;95.20;;;11.23;58.46;102559.63;2569680;30;139218;-42
2022/03/24 09:16:13;;;;;;;;;;;12.10;95.00;;;11.32;56.91;102553.09;2571002;30;136664;-42
2022/03/24 09:18:42;;;;;;;;;;;12.20;94.00;;;11.37;55.19;102555.31;2569367;30;137320;-42
2022/03/24 09:21:09;;;;;;;;;;;12.30;92.70;;;11.50;55.99;102557.50;2568086;30;137044;-42
2022/03/24 09:23:37;;;;;;;;;;;12.40;92.70;;;11.69;55.19;102560.84;2569488;30;138943;-42
2022/03/24 09:26:04;;;;;;;;;;;12.60;92.40;;;11.80;54.05;102552.25;2567876;30;136961;-42
2022/03/24 09:28:52;;;;;;;;;;;12.70;91.60;;;11.90;55.36;102557.50;2572599;30;137137;-42
2022/03/24 09:31:20;;;;;;;;;;;12.80;92.00;;;11.94;53.35;102556.09;2567628;30;138076;-42
2022/03/24 09:33:48;;;;;;;;;;;12.90;91.10;;;12.06;54.71;102557.41;2567349;30;137840;-41
2022/03/24 09:36:16;;;;;;;;;;;13.00;91.40;;;12.18;55.00;102554.28;2568853;30;137135;-42
2022/03/24 09:38:44;;;;;;;;;;;13.10;91.80;;;12.29;54.66;102545.66;2568390;30;139158;-42
2022/03/24 09:41:14;;;;;;;;;;;13.20;91.60;;;12.42;55.32;102555.16;2568892;30;137709;-42
2022/03/24 09:43:42;;;;;;;;;;;13.30;91.80;;;12.58;54.24;102555.00;2569763;30;138404;-42
2022/03/24 09:46:09;;;;;;;;;;;13.50;91.20;;;12.71;54.22;102551.66;2567674;30;137368;-44
2022/03/24 09:48:39;;;;;;;;;;;13.60;91.00;;;12.83;52.38;102549.31;2569035;30;137761;-42
2022/03/24 09:51:07;;;;;;;;;;;13.70;89.50;;;12.86;52.45;102553.59;2569543;30;136716;-42
2022/03/24 09:53:39;;;;;;;;;;;13.80;88.80;;;13.02;51.70;102556.19;2568706;30;137927;-42
2022/03/24 09:56:08;;;;;;;;;;;13.90;88.90;;;13.21;51.38;102553.91;2569882;30;137041;-42
2022/03/24 09:58:36;;;;;;;;;;;14.10;88.90;;;13.40;50.27;102557.13;2570098;30;138416;-44
2022/03/24 10:01:03;;;;;;;;;;;14.20;86.40;;;13.51;51.01;102548.44;2569667;30;137030;-42
2022/03/24 10:03:31;;;;;;;;;;;14.40;86.80;;;13.62;52.69;102553.47;2570514;30;138329;-42
2022/03/24 10:06:09;;;;;;;;;;;14.50;89.10;;;13.71;52.24;102553.34;2569608;30;136787;-42
2022/03/24 10:08:37;;;;;;;;;;;14.50;89.00;;;13.78;49.80;102546.91;2567841;30;137743;-39
2022/03/24 10:11:07;;;;;;;;;;;14.60;85.80;;;13.68;51.65;102553.75;2570630;30;137015;-39
2022/03/24 10:13:44;;;;;;;;;;;14.70;87.50;;;13.74;48.44;102553.84;2569118;30;138276;-39
2022/03/24 10:16:34;;;;;;;;;;;14.70;82.50;;;13.90;48.87;102552.75;2568785;30;137364;-42
2022/03/24 10:19:10;;;;;;;;;;;;;;;14.10;49.22;102541.16;2566923;30;138259;-43
2022/03/24 10:21:39;;;;;;;;;;;;;;;14.26;48.01;102542.81;2567829;30;137891;-42
2022/03/24 10:24:09;;;;;;;;;;;;;;;14.41;47.96;102541.88;2569619;30;137653;-42
2022/03/24 10:26:41;;;;;;;;;;;14.80;83.00;;;14.55;47.33;102537.38;2567804;30;137430;-42
2022/03/24 10:29:10;;;;;;;;;;;;;;;14.58;46.46;102529.59;2569568;30;138488;-43
2022/03/24 10:31:40;;;;;;;;;;;15.30;81.40;;;14.50;48.50;102536.06;2569870;30;137220;-42
2022/03/24 10:34:10;;;;;;;;;;;15.50;82.70;;;14.36;47.18;102540.59;2569404;30;138269;-42
2022/03/24 10:36:41;;;;;;;;;;;15.50;79.40;;;14.42;48.72;102533.47;2569152;30;137163;-42
2022/03/24 10:39:09;;;;;;;;;;;15.40;80.70;;;14.55;46.07;102540.97;2568486;30;138338;-44
2022/03/24 10:41:38;;;;;;;;;;;15.50;78.50;;;14.67;46.80;102542.13;2569561;30;136896;-43
2022/03/24 10:44:09;;;;;;;;;;;15.50;79.00;;;14.72;45.48;102540.72;2570017;30;139270;-40
2022/03/24 10:46:41;;;;;;;;;;;15.60;78.30;;;14.84;45.13;102533.63;2570756;30;136948;-38
2022/03/24 10:49:25;;;;;;;;;;;15.70;77.50;;;14.90;45.27;102534.75;2570349;30;138277;-39
2022/03/24 10:51:56;;;;;;;;;;;15.80;77.80;;;14.93;43.84;102528.84;2568121;30;137305;-40
2022/03/24 10:54:41;;;;;;;;;;;15.90;75.90;;;15.02;44.98;102530.38;2567503;30;137233;-39
2022/03/24 10:57:13;;;;;;;;;;;15.90;77.20;;;15.15;45.57;102531.53;2570726;30;137158;-39
2022/03/24 10:59:44;;;;;;;;;;;16.00;77.60;;;15.16;40.67;102530.47;2568997;30;136942;-39
2022/03/24 11:02:13;;;;;;;;;;;16.10;71.40;;;15.23;41.56;102525.88;2569406;30;137904;-40
2022/03/24 11:04:43;;;;;;;;;;;16.20;72.40;;;15.37;43.05;102529.53;2569325;30;138463;-39
2022/03/24 11:07:10;;;;;;;;;;;16.30;74.00;;;15.61;41.29;102524.56;2567933;30;137442;-39
2022/03/24 11:09:38;;;;;;;;;;;16.40;72.70;;;15.80;40.98;102531.22;2568959;30;138296;-39
2022/03/24 11:12:38;;;;;;;;;;;16.60;71.50;;;15.79;42.44;102533.13;2569078;30;137907;-39
2022/03/24 11:15:10;;;;;;;;;;;16.70;72.40;;;15.81;40.24;102535.66;2567387;30;139509;-39
2022/03/24 11:17:39;;;;;;;;;;;16.80;71.10;;;15.65;39.50;102525.84;2567646;30;136864;-39
2022/03/24 11:20:07;;;;;;;;;;;16.70;68.70;;;15.75;39.90;102525.47;2570073;30;138180;-39